sensor_id;sensor_type;location;lat;lon;timestamp;P1;durP1;ratioP1;P2;durP2;ratioP2
12296;SDS011;6211;49.124;9.152;2024-02-26T00:00:24;2.95;;;1.77;;
12296;SDS011;6211;49.124;9.152;2024-02-26T00:02:51;1.90;;;1.73;;
12296;SDS011;6211;49.124;9.152;2024-02-26T00:05:19;1.25;;;1.15;;
12296;SDS011;6211;49.124;9.152;2024-02-26T00:07:47;3.35;;;1.50;;
12296;SDS011;6211;49.124;9.152;2024-02-26T00:10:15;2.05;;;1.60;;
12296;SDS011;6211;49.124;9.152;2024-02-26T00:12:42;1.70;;;1.60;;
12296;SDS011;6211;49.124;9.152;2024-02-26T00:15:09;2.67;;;1.48;;
12296;SDS011;6211;49.124;9.152;2024-02-26T00:17:36;2.28;;;1.90;;
12296;SDS011;6211;49.124;9.152;2024-02-26T00:20:04;1.60;;;1.33;;
12296;SDS011;6211;49.124;9.152;2024-02-26T00:22:35;2.13;;;1.60;;
12296;SDS011;6211;49.124;9.152;2024-02-26T00:25:02;1.35;;;1.25;;
12296;SDS011;6211;49.124;9.152;2024-02-26T00:27:29;2.22;;;1.55;;
12296;SDS011;6211;49.124;9.152;2024-02-26T00:29:56;2.30;;;1.90;;
12296;SDS011;6211;49.124;9.152;2024-02-26T00:32:23;1.27;;;1.20;;
12296;SDS011;6211;49.124;9.152;2024-02-26T00:34:50;2.65;;;1.42;;
12296;SDS011;6211;49.124;9.152;2024-02-26T00:37:18;1.40;;;1.30;;
12296;SDS011;6211;49.124;9.152;2024-02-26T00:39:46;1.88;;;1.45;;
12296;SDS011;6211;49.124;9.152;2024-02-26T00:42:14;1.70;;;1.25;;
12296;SDS011;6211;49.124;9.152;2024-02-26T00:44:41;2.13;;;1.40;;
12296;SDS011;6211;49.124;9.152;2024-02-26T00:47:08;1.00;;;1.00;;
12296;SDS011;6211;49.124;9.152;2024-02-26T00:49:36;1.67;;;1.42;;
12296;SDS011;6211;49.124;9.152;2024-02-26T00:52:04;1.60;;;1.50;;
12296;SDS011;6211;49.124;9.152;2024-02-26T00:54:31;2.58;;;1.48;;
12296;SDS011;6211;49.124;9.152;2024-02-26T00:56:59;2.22;;;1.55;;
12296;SDS011;6211;49.124;9.152;2024-02-26T00:59:26;1.45;;;1.35;;
12296;SDS011;6211;49.124;9.152;2024-02-26T01:01:54;1.30;;;1.20;;
12296;SDS011;6211;49.124;9.152;2024-02-26T01:04:21;1.48;;;1.33;;
12296;SDS011;6211;49.124;9.152;2024-02-26T01:06:48;1.77;;;1.42;;
12296;SDS011;6211;49.124;9.152;2024-02-26T01:09:15;1.80;;;1.40;;
12296;SDS011;6211;49.124;9.152;2024-02-26T01:11:43;2.00;;;1.65;;
12296;SDS011;6211;49.124;9.152;2024-02-26T01:14:11;2.40;;;1.50;;
12296;SDS011;6211;49.124;9.152;2024-02-26T01:16:39;1.58;;;1.48;;
12296;SDS011;6211;49.124;9.152;2024-02-26T01:19:06;1.55;;;1.15;;
12296;SDS011;6211;49.124;9.152;2024-02-26T01:21:34;1.63;;;1.30;;
12296;SDS011;6211;49.124;9.152;2024-02-26T01:24:01;1.50;;;1.40;;
12296;SDS011;6211;49.124;9.152;2024-02-26T01:26:28;1.63;;;1.33;;
12296;SDS011;6211;49.124;9.152;2024-02-26T01:28:56;2.15;;;1.50;;
12296;SDS011;6211;49.124;9.152;2024-02-26T01:31:24;1.80;;;1.45;;
12296;SDS011;6211;49.124;9.152;2024-02-26T01:33:51;2.28;;;1.75;;
12296;SDS011;6211;49.124;9.152;2024-02-26T01:36:18;2.75;;;1.70;;
12296;SDS011;6211;49.124;9.152;2024-02-26T01:38:46;1.52;;;1.42;;
12296;SDS011;6211;49.124;9.152;2024-02-26T01:41:13;2.15;;;1.88;;
12296;SDS011;6211;49.124;9.152;2024-02-26T01:43:40;1.88;;;1.50;;
12296;SDS011;6211;49.124;9.152;2024-02-26T01:46:07;3.20;;;1.85;;
12296;SDS011;6211;49.124;9.152;2024-02-26T01:48:40;1.73;;;1.27;;
12296;SDS011;6211;49.124;9.152;2024-02-26T01:51:07;2.78;;;1.52;;
12296;SDS011;6211;49.124;9.152;2024-02-26T01:53:34;1.38;;;1.27;;
12296;SDS011;6211;49.124;9.152;2024-02-26T01:56:01;1.55;;;1.45;;
12296;SDS011;6211;49.124;9.152;2024-02-26T01:58:29;2.63;;;1.60;;
12296;SDS011;6211;49.124;9.152;2024-02-26T02:00:57;1.85;;;1.27;;
12296;SDS011;6211;49.124;9.152;2024-02-26T02:03:25;1.73;;;1.60;;
12296;SDS011;6211;49.124;9.152;2024-02-26T02:05:53;1.20;;;1.10;;
12296;SDS011;6211;49.124;9.152;2024-02-26T02:08:21;1.60;;;1.50;;
12296;SDS011;6211;49.124;9.152;2024-02-26T02:10:49;2.30;;;1.52;;
12296;SDS011;6211;49.124;9.152;2024-02-26T02:13:16;1.83;;;1.73;;
12296;SDS011;6211;49.124;9.152;2024-02-26T02:15:43;1.38;;;1.23;;
12296;SDS011;6211;49.124;9.152;2024-02-26T02:18:10;3.45;;;1.98;;
12296;SDS011;6211;49.124;9.152;2024-02-26T02:20:39;2.10;;;1.75;;
12296;SDS011;6211;49.124;9.152;2024-02-26T02:23:06;1.65;;;1.55;;
12296;SDS011;6211;49.124;9.152;2024-02-26T02:25:33;1.50;;;1.40;;
12296;SDS011;6211;49.124;9.152;2024-02-26T02:28:00;2.08;;;1.52;;
12296;SDS011;6211;49.124;9.152;2024-02-26T02:30:28;1.75;;;1.35;;
12296;SDS011;6211;49.124;9.152;2024-02-26T02:32:55;1.45;;;1.20;;
12296;SDS011;6211;49.124;9.152;2024-02-26T02:35:23;3.88;;;1.27;;
12296;SDS011;6211;49.124;9.152;2024-02-26T02:37:52;1.85;;;1.48;;
12296;SDS011;6211;49.124;9.152;2024-02-26T02:40:19;2.67;;;2.10;;
12296;SDS011;6211;49.124;9.152;2024-02-26T02:42:46;1.75;;;1.65;;
12296;SDS011;6211;49.124;9.152;2024-02-26T02:45:13;2.25;;;2.08;;
12296;SDS011;6211;49.124;9.152;2024-02-26T02:47:40;2.67;;;1.85;;
12296;SDS011;6211;49.124;9.152;2024-02-26T02:50:08;3.22;;;1.90;;
12296;SDS011;6211;49.124;9.152;2024-02-26T02:52:35;1.48;;;1.38;;
12296;SDS011;6211;49.124;9.152;2024-02-26T02:55:04;2.60;;;2.15;;
12296;SDS011;6211;49.124;9.152;2024-02-26T02:57:31;2.97;;;1.58;;
12296;SDS011;6211;49.124;9.152;2024-02-26T02:59:58;3.95;;;1.67;;
12296;SDS011;6211;49.124;9.152;2024-02-26T03:02:25;3.33;;;1.70;;
12296;SDS011;6211;49.124;9.152;2024-02-26T03:04:52;4.28;;;1.75;;
12296;SDS011;6211;49.124;9.152;2024-02-26T03:07:19;3.05;;;1.85;;
12296;SDS011;6211;49.124;9.152;2024-02-26T03:09:46;3.95;;;1.50;;
12296;SDS011;6211;49.124;9.152;2024-02-26T03:12:15;4.05;;;1.65;;
12296;SDS011;6211;49.124;9.152;2024-02-26T03:14:43;1.80;;;1.70;;
12296;SDS011;6211;49.124;9.152;2024-02-26T03:17:10;1.63;;;1.52;;
12296;SDS011;6211;49.124;9.152;2024-02-26T03:19:37;33.80;;;11.65;;
12296;SDS011;6211;49.124;9.152;2024-02-26T03:22:04;73.32;;;23.70;;
12296;SDS011;6211;49.124;9.152;2024-02-26T03:24:31;44.80;;;14.70;;
12296;SDS011;6211;49.124;9.152;2024-02-26T03:26:58;24.70;;;9.88;;
12296;SDS011;6211;49.124;9.152;2024-02-26T03:29:27;17.98;;;6.75;;
12296;SDS011;6211;49.124;9.152;2024-02-26T03:31:54;5.53;;;2.47;;
12296;SDS011;6211;49.124;9.152;2024-02-26T03:34:21;1.88;;;1.73;;
12296;SDS011;6211;49.124;9.152;2024-02-26T03:36:48;1.60;;;1.50;;
12296;SDS011;6211;49.124;9.152;2024-02-26T03:39:16;5.07;;;2.80;;
12296;SDS011;6211;49.124;9.152;2024-02-26T03:41:43;3.28;;;2.33;;
12296;SDS011;6211;49.124;9.152;2024-02-26T03:44:10;1.98;;;1.63;;
12296;SDS011;6211;49.124;9.152;2024-02-26T03:46:38;1.85;;;1.55;;
12296;SDS011;6211;49.124;9.152;2024-02-26T03:49:07;1.73;;;1.23;;
12296;SDS011;6211;49.124;9.152;2024-02-26T03:51:34;2.03;;;1.80;;
12296;SDS011;6211;49.124;9.152;2024-02-26T03:54:02;2.10;;;1.80;;
12296;SDS011;6211;49.124;9.152;2024-02-26T03:56:29;5.95;;;2.10;;
12296;SDS011;6211;49.124;9.152;2024-02-26T03:58:56;3.55;;;1.88;;
12296;SDS011;6211;49.124;9.152;2024-02-26T04:01:24;2.45;;;2.08;;
12296;SDS011;6211;49.124;9.152;2024-02-26T04:03:53;2.85;;;1.88;;
12296;SDS011;6211;49.124;9.152;2024-02-26T04:06:20;2.42;;;1.88;;
12296;SDS011;6211;49.124;9.152;2024-02-26T04:08:47;1.50;;;1.20;;
12296;SDS011;6211;49.124;9.152;2024-02-26T04:11:14;2.10;;;1.48;;
12296;SDS011;6211;49.124;9.152;2024-02-26T04:13:43;1.75;;;1.38;;
12296;SDS011;6211;49.124;9.152;2024-02-26T04:16:14;1.70;;;1.60;;
12296;SDS011;6211;49.124;9.152;2024-02-26T04:18:41;3.05;;;2.38;;
12296;SDS011;6211;49.124;9.152;2024-02-26T04:21:09;2.75;;;2.22;;
12296;SDS011;6211;49.124;9.152;2024-02-26T04:23:37;2.45;;;2.03;;
12296;SDS011;6211;49.124;9.152;2024-02-26T04:26:04;2.88;;;2.00;;
12296;SDS011;6211;49.124;9.152;2024-02-26T04:28:31;2.90;;;2.03;;
12296;SDS011;6211;49.124;9.152;2024-02-26T04:30:58;2.20;;;1.80;;
12296;SDS011;6211;49.124;9.152;2024-02-26T04:33:25;2.28;;;1.95;;
12296;SDS011;6211;49.124;9.152;2024-02-26T04:35:52;4.55;;;2.03;;
12296;SDS011;6211;49.124;9.152;2024-02-26T04:38:21;3.03;;;2.20;;
12296;SDS011;6211;49.124;9.152;2024-02-26T04:40:48;2.17;;;1.90;;
12296;SDS011;6211;49.124;9.152;2024-02-26T04:43:15;3.72;;;2.05;;
12296;SDS011;6211;49.124;9.152;2024-02-26T04:45:44;1.88;;;1.73;;
12296;SDS011;6211;49.124;9.152;2024-02-26T04:48:11;2.75;;;1.92;;
12296;SDS011;6211;49.124;9.152;2024-02-26T04:50:38;2.83;;;1.70;;
12296;SDS011;6211;49.124;9.152;2024-02-26T04:53:06;2.30;;;2.13;;
12296;SDS011;6211;49.124;9.152;2024-02-26T04:55:34;2.63;;;1.73;;
12296;SDS011;6211;49.124;9.152;2024-02-26T04:58:01;2.10;;;1.90;;
12296;SDS011;6211;49.124;9.152;2024-02-26T05:00:28;2.33;;;2.13;;
12296;SDS011;6211;49.124;9.152;2024-02-26T05:02:55;4.57;;;1.90;;
12296;SDS011;6211;49.124;9.152;2024-02-26T05:05:23;2.55;;;1.67;;
12296;SDS011;6211;49.124;9.152;2024-02-26T05:07:50;2.00;;;1.70;;
12296;SDS011;6211;49.124;9.152;2024-02-26T05:10:17;2.63;;;1.83;;
12296;SDS011;6211;49.124;9.152;2024-02-26T05:12:45;3.25;;;1.90;;
12296;SDS011;6211;49.124;9.152;2024-02-26T05:15:13;2.97;;;2.10;;
12296;SDS011;6211;49.124;9.152;2024-02-26T05:17:43;2.10;;;1.55;;
12296;SDS011;6211;49.124;9.152;2024-02-26T05:20:10;3.00;;;2.13;;
12296;SDS011;6211;49.124;9.152;2024-02-26T05:22:37;3.03;;;2.10;;
12296;SDS011;6211;49.124;9.152;2024-02-26T05:25:05;2.53;;;1.67;;
12296;SDS011;6211;49.124;9.152;2024-02-26T05:27:32;3.88;;;1.73;;
12296;SDS011;6211;49.124;9.152;2024-02-26T05:30:00;1.50;;;1.35;;
12296;SDS011;6211;49.124;9.152;2024-02-26T05:32:28;2.72;;;1.88;;
12296;SDS011;6211;49.124;9.152;2024-02-26T05:34:55;3.40;;;1.88;;
12296;SDS011;6211;49.124;9.152;2024-02-26T05:37:22;3.08;;;2.00;;
12296;SDS011;6211;49.124;9.152;2024-02-26T05:39:49;2.88;;;2.03;;
12296;SDS011;6211;49.124;9.152;2024-02-26T05:42:17;2.28;;;1.95;;
12296;SDS011;6211;49.124;9.152;2024-02-26T05:44:44;2.42;;;1.90;;
12296;SDS011;6211;49.124;9.152;2024-02-26T05:47:13;2.28;;;1.88;;
12296;SDS011;6211;49.124;9.152;2024-02-26T05:49:40;2.28;;;2.08;;
12296;SDS011;6211;49.124;9.152;2024-02-26T05:52:07;2.10;;;1.80;;
12296;SDS011;6211;49.124;9.152;2024-02-26T05:54:35;1.70;;;1.60;;
12296;SDS011;6211;49.124;9.152;2024-02-26T05:57:02;1.52;;;1.42;;
12296;SDS011;6211;49.124;9.152;2024-02-26T05:59:29;2.20;;;1.98;;
12296;SDS011;6211;49.124;9.152;2024-02-26T06:01:56;1.60;;;1.50;;
12296;SDS011;6211;49.124;9.152;2024-02-26T06:04:25;2.80;;;1.80;;
12296;SDS011;6211;49.124;9.152;2024-02-26T06:06:52;2.10;;;1.88;;
12296;SDS011;6211;49.124;9.152;2024-02-26T06:09:19;7.03;;;2.08;;
12296;SDS011;6211;49.124;9.152;2024-02-26T06:11:46;2.28;;;2.05;;
12296;SDS011;6211;49.124;9.152;2024-02-26T06:14:13;2.83;;;1.90;;
12296;SDS011;6211;49.124;9.152;2024-02-26T06:16:43;2.33;;;1.73;;
12296;SDS011;6211;49.124;9.152;2024-02-26T06:19:10;3.50;;;1.67;;
12296;SDS011;6211;49.124;9.152;2024-02-26T06:21:38;2.03;;;1.77;;
12296;SDS011;6211;49.124;9.152;2024-02-26T06:24:05;2.90;;;1.92;;
12296;SDS011;6211;49.124;9.152;2024-02-26T06:26:32;2.58;;;2.38;;
12296;SDS011;6211;49.124;9.152;2024-02-26T06:28:59;3.55;;;3.20;;
12296;SDS011;6211;49.124;9.152;2024-02-26T06:31:26;6.32;;;3.20;;
12296;SDS011;6211;49.124;9.152;2024-02-26T06:33:54;3.60;;;2.33;;
12296;SDS011;6211;49.124;9.152;2024-02-26T06:36:21;2.97;;;2.60;;
12296;SDS011;6211;49.124;9.152;2024-02-26T06:38:50;2.78;;;2.58;;
12296;SDS011;6211;49.124;9.152;2024-02-26T06:41:19;3.20;;;2.15;;
12296;SDS011;6211;49.124;9.152;2024-02-26T06:43:46;4.15;;;2.83;;
12296;SDS011;6211;49.124;9.152;2024-02-26T06:46:13;6.13;;;2.30;;
12296;SDS011;6211;49.124;9.152;2024-02-26T06:48:40;3.58;;;2.00;;
12296;SDS011;6211;49.124;9.152;2024-02-26T06:51:07;3.00;;;2.20;;
12296;SDS011;6211;49.124;9.152;2024-02-26T06:53:35;2.22;;;2.03;;
12296;SDS011;6211;49.124;9.152;2024-02-26T06:56:03;3.28;;;2.15;;
12296;SDS011;6211;49.124;9.152;2024-02-26T06:58:31;3.25;;;2.25;;
12296;SDS011;6211;49.124;9.152;2024-02-26T07:00:58;5.05;;;2.33;;
12296;SDS011;6211;49.124;9.152;2024-02-26T07:03:25;2.15;;;1.95;;
12296;SDS011;6211;49.124;9.152;2024-02-26T07:05:52;3.53;;;2.53;;
12296;SDS011;6211;49.124;9.152;2024-02-26T07:08:19;2.40;;;2.00;;
12296;SDS011;6211;49.124;9.152;2024-02-26T07:10:47;2.55;;;2.00;;
12296;SDS011;6211;49.124;9.152;2024-02-26T07:13:15;4.03;;;2.20;;
12296;SDS011;6211;49.124;9.152;2024-02-26T07:15:43;2.30;;;2.08;;
12296;SDS011;6211;49.124;9.152;2024-02-26T07:18:10;3.65;;;2.45;;
12296;SDS011;6211;49.124;9.152;2024-02-26T07:20:37;2.05;;;1.90;;
12296;SDS011;6211;49.124;9.152;2024-02-26T07:23:04;4.55;;;2.42;;
12296;SDS011;6211;49.124;9.152;2024-02-26T07:25:31;4.75;;;2.30;;
12296;SDS011;6211;49.124;9.152;2024-02-26T07:27:58;3.28;;;2.40;;
12296;SDS011;6211;49.124;9.152;2024-02-26T07:30:27;2.78;;;2.00;;
12296;SDS011;6211;49.124;9.152;2024-02-26T07:32:54;2.85;;;2.65;;
12296;SDS011;6211;49.124;9.152;2024-02-26T07:35:21;2.38;;;2.00;;
12296;SDS011;6211;49.124;9.152;2024-02-26T07:37:48;2.97;;;2.53;;
12296;SDS011;6211;49.124;9.152;2024-02-26T07:40:16;3.70;;;2.22;;
12296;SDS011;6211;49.124;9.152;2024-02-26T07:42:43;3.45;;;3.08;;
12296;SDS011;6211;49.124;9.152;2024-02-26T07:45:10;5.97;;;2.30;;
12296;SDS011;6211;49.124;9.152;2024-02-26T07:47:41;5.13;;;2.53;;
12296;SDS011;6211;49.124;9.152;2024-02-26T07:50:09;2.33;;;2.13;;
12296;SDS011;6211;49.124;9.152;2024-02-26T07:52:37;2.25;;;2.05;;
12296;SDS011;6211;49.124;9.152;2024-02-26T07:55:04;3.97;;;3.03;;
12296;SDS011;6211;49.124;9.152;2024-02-26T07:57:32;4.47;;;2.83;;
12296;SDS011;6211;49.124;9.152;2024-02-26T07:59:59;3.25;;;2.70;;
12296;SDS011;6211;49.124;9.152;2024-02-26T08:02:26;4.78;;;3.13;;
12296;SDS011;6211;49.124;9.152;2024-02-26T08:04:55;5.25;;;3.38;;
12296;SDS011;6211;49.124;9.152;2024-02-26T08:07:22;2.65;;;2.42;;
12296;SDS011;6211;49.124;9.152;2024-02-26T08:09:49;3.88;;;2.65;;
12296;SDS011;6211;49.124;9.152;2024-02-26T08:12:16;6.07;;;2.90;;
12296;SDS011;6211;49.124;9.152;2024-02-26T08:14:43;4.70;;;2.67;;
12296;SDS011;6211;49.124;9.152;2024-02-26T08:17:10;3.83;;;2.75;;
12296;SDS011;6211;49.124;9.152;2024-02-26T08:19:40;4.10;;;3.20;;
12296;SDS011;6211;49.124;9.152;2024-02-26T08:22:20;4.38;;;2.92;;
12296;SDS011;6211;49.124;9.152;2024-02-26T08:24:48;4.28;;;3.13;;
12296;SDS011;6211;49.124;9.152;2024-02-26T08:27:15;5.28;;;2.70;;
12296;SDS011;6211;49.124;9.152;2024-02-26T08:29:42;4.03;;;2.90;;
12296;SDS011;6211;49.124;9.152;2024-02-26T08:32:09;3.25;;;2.97;;
12296;SDS011;6211;49.124;9.152;2024-02-26T08:34:36;4.60;;;2.85;;
12296;SDS011;6211;49.124;9.152;2024-02-26T08:37:04;5.75;;;3.47;;
12296;SDS011;6211;49.124;9.152;2024-02-26T08:39:32;3.67;;;3.00;;
12296;SDS011;6211;49.124;9.152;2024-02-26T08:41:59;5.43;;;3.33;;
12296;SDS011;6211;49.124;9.152;2024-02-26T08:44:27;3.67;;;3.05;;
12296;SDS011;6211;49.124;9.152;2024-02-26T08:46:54;5.32;;;3.70;;
12296;SDS011;6211;49.124;9.152;2024-02-26T08:49:21;4.10;;;3.28;;
12296;SDS011;6211;49.124;9.152;2024-02-26T08:51:48;6.95;;;3.17;;
12296;SDS011;6211;49.124;9.152;2024-02-26T08:54:15;4.63;;;3.35;;
12296;SDS011;6211;49.124;9.152;2024-02-26T08:56:44;5.93;;;3.92;;
12296;SDS011;6211;49.124;9.152;2024-02-26T08:59:11;5.47;;;3.80;;
12296;SDS011;6211;49.124;9.152;2024-02-26T09:01:37;5.15;;;3.42;;
12296;SDS011;6211;49.124;9.152;2024-02-26T09:04:05;3.10;;;2.80;;
12296;SDS011;6211;49.124;9.152;2024-02-26T09:06:32;3.45;;;3.15;;
12296;SDS011;6211;49.124;9.152;2024-02-26T09:08:59;4.00;;;3.17;;
12296;SDS011;6211;49.124;9.152;2024-02-26T09:11:26;4.80;;;3.45;;
12296;SDS011;6211;49.124;9.152;2024-02-26T09:13:54;4.10;;;3.33;;
12296;SDS011;6211;49.124;9.152;2024-02-26T09:16:21;4.93;;;2.95;;
12296;SDS011;6211;49.124;9.152;2024-02-26T09:18:49;3.95;;;2.83;;
12296;SDS011;6211;49.124;9.152;2024-02-26T09:21:16;3.60;;;2.55;;
12296;SDS011;6211;49.124;9.152;2024-02-26T09:23:48;4.80;;;2.53;;
12296;SDS011;6211;49.124;9.152;2024-02-26T09:26:15;2.80;;;2.55;;
12296;SDS011;6211;49.124;9.152;2024-02-26T09:28:42;3.42;;;2.47;;
12296;SDS011;6211;49.124;9.152;2024-02-26T09:31:11;2.40;;;2.13;;
12296;SDS011;6211;49.124;9.152;2024-02-26T09:33:41;3.70;;;2.20;;
12296;SDS011;6211;49.124;9.152;2024-02-26T09:36:08;3.92;;;1.98;;
12296;SDS011;6211;49.124;9.152;2024-02-26T09:38:36;3.28;;;2.25;;
12296;SDS011;6211;49.124;9.152;2024-02-26T09:41:04;2.50;;;2.28;;
12296;SDS011;6211;49.124;9.152;2024-02-26T09:43:34;3.13;;;2.42;;
12296;SDS011;6211;49.124;9.152;2024-02-26T09:46:03;5.47;;;2.38;;
12296;SDS011;6211;49.124;9.152;2024-02-26T09:48:32;3.40;;;2.35;;
12296;SDS011;6211;49.124;9.152;2024-02-26T09:51:00;3.00;;;2.15;;
12296;SDS011;6211;49.124;9.152;2024-02-26T09:53:28;2.58;;;1.95;;
12296;SDS011;6211;49.124;9.152;2024-02-26T09:55:56;2.40;;;1.75;;
12296;SDS011;6211;49.124;9.152;2024-02-26T09:58:24;2.28;;;1.77;;
12296;SDS011;6211;49.124;9.152;2024-02-26T10:00:53;2.38;;;1.90;;
12296;SDS011;6211;49.124;9.152;2024-02-26T10:03:21;2.83;;;2.08;;
12296;SDS011;6211;49.124;9.152;2024-02-26T10:05:50;4.97;;;2.20;;
12296;SDS011;6211;49.124;9.152;2024-02-26T10:08:20;2.60;;;2.35;;
12296;SDS011;6211;49.124;9.152;2024-02-26T10:10:48;5.13;;;2.63;;
12296;SDS011;6211;49.124;9.152;2024-02-26T10:13:15;5.13;;;2.92;;
12296;SDS011;6211;49.124;9.152;2024-02-26T10:15:44;5.68;;;2.63;;
12296;SDS011;6211;49.124;9.152;2024-02-26T10:18:11;5.63;;;2.90;;
12296;SDS011;6211;49.124;9.152;2024-02-26T10:20:38;2.42;;;2.15;;
12296;SDS011;6211;49.124;9.152;2024-02-26T10:23:07;2.65;;;2.13;;
12296;SDS011;6211;49.124;9.152;2024-02-26T10:25:34;2.60;;;1.90;;
12296;SDS011;6211;49.124;9.152;2024-02-26T10:28:01;2.42;;;2.00;;
12296;SDS011;6211;49.124;9.152;2024-02-26T10:30:29;2.20;;;1.80;;
12296;SDS011;6211;49.124;9.152;2024-02-26T10:32:56;2.38;;;2.05;;
12296;SDS011;6211;49.124;9.152;2024-02-26T10:35:23;2.25;;;2.00;;
12296;SDS011;6211;49.124;9.152;2024-02-26T10:37:51;3.42;;;1.80;;
12296;SDS011;6211;49.124;9.152;2024-02-26T10:40:20;2.40;;;2.13;;
12296;SDS011;6211;49.124;9.152;2024-02-26T10:42:47;4.53;;;1.98;;
12296;SDS011;6211;49.124;9.152;2024-02-26T10:45:14;5.18;;;2.38;;
12296;SDS011;6211;49.124;9.152;2024-02-26T10:47:41;2.63;;;2.08;;
12296;SDS011;6211;49.124;9.152;2024-02-26T10:50:09;3.15;;;2.15;;
12296;SDS011;6211;49.124;9.152;2024-02-26T10:52:45;2.92;;;2.38;;
12296;SDS011;6211;49.124;9.152;2024-02-26T10:55:16;2.97;;;2.00;;
12296;SDS011;6211;49.124;9.152;2024-02-26T10:57:45;2.00;;;1.80;;
12296;SDS011;6211;49.124;9.152;2024-02-26T11:00:14;2.65;;;1.90;;
12296;SDS011;6211;49.124;9.152;2024-02-26T11:02:41;2.88;;;2.22;;
12296;SDS011;6211;49.124;9.152;2024-02-26T11:05:09;2.58;;;2.22;;
12296;SDS011;6211;49.124;9.152;2024-02-26T11:07:38;2.88;;;2.20;;
12296;SDS011;6211;49.124;9.152;2024-02-26T11:10:06;3.03;;;2.58;;
12296;SDS011;6211;49.124;9.152;2024-02-26T11:12:33;4.25;;;2.40;;
12296;SDS011;6211;49.124;9.152;2024-02-26T11:15:04;3.65;;;2.22;;
12296;SDS011;6211;49.124;9.152;2024-02-26T11:17:31;3.15;;;1.90;;
12296;SDS011;6211;49.124;9.152;2024-02-26T11:19:59;6.03;;;3.72;;
12296;SDS011;6211;49.124;9.152;2024-02-26T11:22:27;3.58;;;2.75;;
12296;SDS011;6211;49.124;9.152;2024-02-26T11:24:56;3.83;;;2.63;;
12296;SDS011;6211;49.124;9.152;2024-02-26T11:27:26;2.72;;;2.50;;
12296;SDS011;6211;49.124;9.152;2024-02-26T11:29:55;2.80;;;2.53;;
12296;SDS011;6211;49.124;9.152;2024-02-26T11:32:26;2.40;;;1.98;;
12296;SDS011;6211;49.124;9.152;2024-02-26T11:34:55;2.67;;;2.22;;
12296;SDS011;6211;49.124;9.152;2024-02-26T11:37:22;2.33;;;2.13;;
12296;SDS011;6211;49.124;9.152;2024-02-26T11:39:51;2.88;;;2.33;;
12296;SDS011;6211;49.124;9.152;2024-02-26T11:42:23;2.35;;;2.15;;
12296;SDS011;6211;49.124;9.152;2024-02-26T11:44:50;4.80;;;2.40;;
12296;SDS011;6211;49.124;9.152;2024-02-26T11:47:18;2.83;;;2.38;;
12296;SDS011;6211;49.124;9.152;2024-02-26T11:49:46;3.17;;;2.20;;
12296;SDS011;6211;49.124;9.152;2024-02-26T11:52:14;2.10;;;1.90;;
12296;SDS011;6211;49.124;9.152;2024-02-26T11:54:45;2.45;;;1.85;;
12296;SDS011;6211;49.124;9.152;2024-02-26T11:57:24;3.70;;;2.03;;
12296;SDS011;6211;49.124;9.152;2024-02-26T11:59:51;1.98;;;1.83;;
12296;SDS011;6211;49.124;9.152;2024-02-26T12:02:37;2.30;;;1.98;;
12296;SDS011;6211;49.124;9.152;2024-02-26T12:05:07;2.47;;;2.22;;
12296;SDS011;6211;49.124;9.152;2024-02-26T12:07:34;2.58;;;1.80;;
12296;SDS011;6211;49.124;9.152;2024-02-26T12:12:50;2.22;;;1.80;;
12296;SDS011;6211;49.124;9.152;2024-02-26T12:15:19;1.92;;;1.73;;
12296;SDS011;6211;49.124;9.152;2024-02-26T12:17:49;2.10;;;1.75;;
12296;SDS011;6211;49.124;9.152;2024-02-26T12:20:18;2.97;;;1.52;;
12296;SDS011;6211;49.124;9.152;2024-02-26T12:22:46;1.60;;;1.50;;
12296;SDS011;6211;49.124;9.152;2024-02-26T12:25:14;3.28;;;1.60;;
12296;SDS011;6211;49.124;9.152;2024-02-26T12:27:41;3.97;;;1.77;;
12296;SDS011;6211;49.124;9.152;2024-02-26T12:30:08;3.00;;;1.33;;
12296;SDS011;6211;49.124;9.152;2024-02-26T12:32:36;2.63;;;1.50;;
12296;SDS011;6211;49.124;9.152;2024-02-26T12:35:03;1.50;;;1.40;;
12296;SDS011;6211;49.124;9.152;2024-02-26T12:37:33;2.55;;;1.80;;
12296;SDS011;6211;49.124;9.152;2024-02-26T12:40:03;1.60;;;1.35;;
12296;SDS011;6211;49.124;9.152;2024-02-26T12:42:30;1.52;;;1.40;;
12296;SDS011;6211;49.124;9.152;2024-02-26T12:44:58;2.22;;;1.48;;
12296;SDS011;6211;49.124;9.152;2024-02-26T12:47:25;1.13;;;1.05;;
12296;SDS011;6211;49.124;9.152;2024-02-26T12:49:52;1.13;;;1.02;;
12296;SDS011;6211;49.124;9.152;2024-02-26T12:52:20;1.17;;;1.10;;
12296;SDS011;6211;49.124;9.152;2024-02-26T12:54:48;1.40;;;1.08;;
12296;SDS011;6211;49.124;9.152;2024-02-26T14:31:52;1.05;;;1.00;;
12296;SDS011;6211;49.124;9.152;2024-02-26T14:34:21;1.02;;;0.93;;
12296;SDS011;6211;49.124;9.152;2024-02-26T14:36:48;1.20;;;1.10;;
12296;SDS011;6211;49.124;9.152;2024-02-26T14:39:15;1.67;;;1.00;;
12296;SDS011;6211;49.124;9.152;2024-02-26T14:41:42;1.23;;;0.90;;
12296;SDS011;6211;49.124;9.152;2024-02-26T14:44:09;1.40;;;0.95;;
12296;SDS011;6211;49.124;9.152;2024-02-26T14:46:37;0.80;;;0.80;;
12296;SDS011;6211;49.124;9.152;2024-02-26T14:49:06;1.48;;;1.10;;
12296;SDS011;6211;49.124;9.152;2024-02-26T14:51:33;0.90;;;0.90;;
12296;SDS011;6211;49.124;9.152;2024-02-26T14:54:00;1.75;;;1.25;;
12296;SDS011;6211;49.124;9.152;2024-02-26T14:56:27;1.38;;;1.08;;
12296;SDS011;6211;49.124;9.152;2024-02-26T14:58:54;2.15;;;1.10;;
12296;SDS011;6211;49.124;9.152;2024-02-26T15:01:22;1.23;;;0.93;;
12296;SDS011;6211;49.124;9.152;2024-02-26T15:03:50;0.90;;;0.90;;
12296;SDS011;6211;49.124;9.152;2024-02-26T15:06:18;1.20;;;1.10;;
12296;SDS011;6211;49.124;9.152;2024-02-26T15:08:45;1.17;;;1.05;;
12296;SDS011;6211;49.124;9.152;2024-02-26T15:11:12;1.08;;;1.02;;
12296;SDS011;6211;49.124;9.152;2024-02-26T15:13:40;1.13;;;1.02;;
12296;SDS011;6211;49.124;9.152;2024-02-26T15:16:07;0.85;;;0.73;;
12296;SDS011;6211;49.124;9.152;2024-02-26T15:18:36;2.72;;;1.10;;
12296;SDS011;6211;49.124;9.152;2024-02-26T15:21:04;1.40;;;0.90;;
12296;SDS011;6211;49.124;9.152;2024-02-26T15:23:33;1.15;;;1.05;;
12296;SDS011;6211;49.124;9.152;2024-02-26T15:26:00;1.15;;;1.05;;
12296;SDS011;6211;49.124;9.152;2024-02-26T15:28:28;1.58;;;1.23;;
12296;SDS011;6211;49.124;9.152;2024-02-26T15:30:55;1.55;;;1.30;;
12296;SDS011;6211;49.124;9.152;2024-02-26T15:33:23;1.67;;;1.55;;
12296;SDS011;6211;49.124;9.152;2024-02-26T15:35:50;1.52;;;1.40;;
12296;SDS011;6211;49.124;9.152;2024-02-26T15:38:17;1.90;;;1.50;;
12296;SDS011;6211;49.124;9.152;2024-02-26T15:40:46;1.52;;;1.40;;
12296;SDS011;6211;49.124;9.152;2024-02-26T15:43:13;1.30;;;1.10;;
12296;SDS011;6211;49.124;9.152;2024-02-26T15:45:40;1.42;;;1.30;;
12296;SDS011;6211;49.124;9.152;2024-02-26T15:48:10;1.42;;;1.33;;
12296;SDS011;6211;49.124;9.152;2024-02-26T15:50:37;1.83;;;1.42;;
12296;SDS011;6211;49.124;9.152;2024-02-26T15:53:06;1.40;;;1.30;;
12296;SDS011;6211;49.124;9.152;2024-02-26T15:55:33;1.67;;;1.52;;
12296;SDS011;6211;49.124;9.152;2024-02-26T15:58:02;2.03;;;1.20;;
12296;SDS011;6211;49.124;9.152;2024-02-26T16:00:29;2.20;;;1.23;;
12296;SDS011;6211;49.124;9.152;2024-02-26T16:02:56;1.40;;;1.30;;
12296;SDS011;6211;49.124;9.152;2024-02-26T16:05:23;1.85;;;1.60;;
12296;SDS011;6211;49.124;9.152;2024-02-26T16:07:51;4.32;;;1.38;;
12296;SDS011;6211;49.124;9.152;2024-02-26T16:10:19;1.77;;;1.50;;
12296;SDS011;6211;49.124;9.152;2024-02-26T16:12:48;2.30;;;1.75;;
12296;SDS011;6211;49.124;9.152;2024-02-26T16:20:58;3.03;;;1.80;;
12296;SDS011;6211;49.124;9.152;2024-02-26T16:23:25;2.00;;;1.60;;
12296;SDS011;6211;49.124;9.152;2024-02-26T16:25:52;3.10;;;1.80;;
12296;SDS011;6211;49.124;9.152;2024-02-26T16:28:19;3.20;;;1.80;;
12296;SDS011;6211;49.124;9.152;2024-02-26T16:30:50;4.45;;;1.60;;
12296;SDS011;6211;49.124;9.152;2024-02-26T16:33:18;2.35;;;1.58;;
12296;SDS011;6211;49.124;9.152;2024-02-26T16:35:46;1.88;;;1.60;;
12296;SDS011;6211;49.124;9.152;2024-02-26T16:38:14;4.88;;;1.60;;
12296;SDS011;6211;49.124;9.152;2024-02-26T16:40:42;2.38;;;1.70;;
12296;SDS011;6211;49.124;9.152;2024-02-26T16:43:09;2.38;;;1.77;;
12296;SDS011;6211;49.124;9.152;2024-02-26T16:45:36;1.92;;;1.50;;